createdAt,value
2017-12-10T00:00:25.006Z,984.53
2017-12-10T00:02:18.366Z,984.46
2017-12-10T00:03:18.322Z,984.50
2017-12-10T00:05:11.681Z,984.52
2017-12-10T00:06:11.629Z,984.51
2017-12-10T00:08:05.011Z,984.45
2017-12-10T00:09:04.956Z,984.44
2017-12-10T00:11:00.826Z,984.34
2017-12-10T00:12:00.782Z,984.43
2017-12-10T00:13:54.146Z,984.34
2017-12-10T00:14:54.094Z,984.41
2017-12-10T00:16:47.462Z,984.38
2017-12-10T00:17:47.408Z,984.33
2017-12-10T00:19:40.757Z,984.34
2017-12-10T00:20:40.708Z,984.30
2017-12-10T00:22:34.079Z,984.25
2017-12-10T00:23:34.036Z,984.21
2017-12-10T00:25:27.397Z,984.17
2017-12-10T00:26:27.340Z,984.15
2017-12-10T00:28:23.212Z,984.10
2017-12-10T00:29:23.171Z,984.08
2017-12-10T00:31:17.382Z,984.06
2017-12-10T00:32:17.331Z,984.04
2017-12-10T00:34:10.748Z,984.02
2017-12-10T00:35:10.659Z,984.03
2017-12-10T00:37:04.010Z,983.98
2017-12-10T00:38:03.961Z,983.98
2017-12-10T00:39:57.320Z,983.92
2017-12-10T00:40:57.271Z,983.83
2017-12-10T00:42:50.686Z,983.84
2017-12-10T00:43:50.595Z,983.82
2017-12-10T00:45:43.973Z,983.79
2017-12-10T00:46:43.920Z,983.71
2017-12-10T00:48:39.788Z,983.69
2017-12-10T00:49:39.737Z,983.67
2017-12-10T00:51:35.608Z,983.67
2017-12-10T00:52:35.562Z,983.62
2017-12-10T00:54:28.926Z,983.65
2017-12-10T00:55:28.879Z,983.63
2017-12-10T00:57:22.237Z,983.57
2017-12-10T00:58:22.196Z,983.60
2017-12-10T01:00:15.556Z,983.54
2017-12-10T01:01:15.504Z,983.58
2017-12-10T01:03:08.853Z,983.59
2017-12-10T01:04:08.817Z,983.53
2017-12-10T01:06:02.204Z,983.55
2017-12-10T01:07:02.160Z,983.50
2017-12-10T01:08:56.376Z,983.36
2017-12-10T01:09:56.313Z,983.40
2017-12-10T01:11:49.668Z,983.31
2017-12-10T01:12:49.617Z,983.30
2017-12-10T01:14:42.968Z,983.27
2017-12-10T01:15:42.923Z,983.29
2017-12-10T01:17:36.287Z,983.32
2017-12-10T01:18:36.242Z,983.32
2017-12-10T01:20:29.602Z,983.33
2017-12-10T01:21:29.562Z,983.33
2017-12-10T01:23:22.926Z,983.30
2017-12-10T01:24:22.875Z,983.22
2017-12-10T01:26:16.224Z,983.24
2017-12-10T01:27:16.178Z,983.22
2017-12-10T01:29:09.543Z,983.23
2017-12-10T01:30:09.500Z,983.21
2017-12-10T01:32:02.889Z,983.21
2017-12-10T01:33:02.825Z,983.15
2017-12-10T01:34:59.534Z,983.14
2017-12-10T01:35:59.487Z,983.14
2017-12-10T01:37:52.857Z,983.07
2017-12-10T01:38:52.807Z,983.03
2017-12-10T01:40:46.163Z,983.12
2017-12-10T01:41:46.118Z,983.08
2017-12-10T01:43:39.464Z,983.00
2017-12-10T01:44:39.424Z,983.02
2017-12-10T01:46:32.827Z,983.01
2017-12-10T01:47:32.739Z,982.97
2017-12-10T01:49:26.089Z,982.97
2017-12-10T01:50:26.052Z,982.97
2017-12-10T01:52:21.949Z,982.91
2017-12-10T01:53:21.894Z,982.82
2017-12-10T01:55:15.269Z,982.83
2017-12-10T01:56:15.214Z,982.87
2017-12-10T01:58:08.575Z,982.77
2017-12-10T01:59:08.529Z,982.77
2017-12-10T02:01:01.879Z,982.76
2017-12-10T02:02:01.843Z,982.72
2017-12-10T02:03:55.381Z,982.71
2017-12-10T02:04:55.181Z,982.63
2017-12-10T02:06:48.542Z,982.62
2017-12-10T02:07:48.502Z,982.51
2017-12-10T02:09:41.897Z,982.53
2017-12-10T02:10:41.870Z,982.43
2017-12-10T02:12:35.995Z,982.39
2017-12-10T02:13:35.950Z,982.31
2017-12-10T02:15:29.308Z,982.29
2017-12-10T02:16:29.256Z,982.21
2017-12-10T02:18:22.613Z,982.23
2017-12-10T02:19:22.578Z,982.14
2017-12-10T02:21:16.127Z,982.10
2017-12-10T02:22:16.078Z,982.01
2017-12-10T02:24:10.222Z,982.03
2017-12-10T02:25:10.182Z,981.97
2017-12-10T02:27:03.557Z,981.97
2017-12-10T02:28:03.508Z,981.90
2017-12-10T02:29:56.994Z,981.99
2017-12-10T02:30:56.836Z,981.96
2017-12-10T02:32:52.678Z,981.79
2017-12-10T02:33:52.641Z,981.82
2017-12-10T02:35:48.512Z,981.75
2017-12-10T02:36:48.461Z,981.84
2017-12-10T02:38:42.674Z,981.85
2017-12-10T02:39:42.629Z,981.80
2017-12-10T02:41:36.864Z,981.73
2017-12-10T02:42:36.815Z,981.79
2017-12-10T02:44:33.579Z,981.81
2017-12-10T02:45:33.534Z,981.91
2017-12-10T02:47:26.890Z,981.78
2017-12-10T02:48:26.857Z,981.84
2017-12-10T02:50:20.194Z,981.69
2017-12-10T02:51:20.154Z,981.66
2017-12-10T02:53:13.504Z,981.64
2017-12-10T02:54:13.459Z,981.69
2017-12-10T02:56:06.811Z,981.57
2017-12-10T02:57:06.769Z,981.69
2017-12-10T02:59:00.614Z,981.50
2017-12-10T03:00:00.266Z,981.54
2017-12-10T03:01:53.618Z,981.52
2017-12-10T03:02:53.578Z,981.48
2017-12-10T03:04:47.834Z,981.52
2017-12-10T03:05:47.789Z,981.50
2017-12-10T03:07:41.136Z,981.54
2017-12-10T03:08:41.104Z,981.46
2017-12-10T03:10:37.004Z,981.48
2017-12-10T03:11:36.918Z,981.35
2017-12-10T03:13:30.277Z,981.46
2017-12-10T03:14:30.232Z,981.48
2017-12-10T03:16:23.581Z,981.40
2017-12-10T03:17:23.540Z,981.40
2017-12-10T03:19:16.892Z,981.46
2017-12-10T03:20:16.851Z,981.45
2017-12-10T03:22:10.212Z,981.46
2017-12-10T03:23:10.170Z,981.47
2017-12-10T03:25:03.545Z,981.36
2017-12-10T03:26:03.500Z,981.40
2017-12-10T03:27:59.370Z,981.28
2017-12-10T03:28:59.320Z,981.38
2017-12-10T03:30:52.665Z,981.40
2017-12-10T03:31:52.622Z,981.32
2017-12-10T03:33:45.996Z,981.32
2017-12-10T03:34:45.946Z,981.25
2017-12-10T03:36:40.208Z,981.30
2017-12-10T03:37:40.159Z,981.24
2017-12-10T03:39:33.515Z,981.24
2017-12-10T03:40:33.472Z,981.37
2017-12-10T03:42:26.830Z,981.09
2017-12-10T03:43:26.784Z,981.08
2017-12-10T03:45:20.149Z,981.14
2017-12-10T03:46:20.106Z,981.08
2017-12-10T03:48:13.463Z,981.06
2017-12-10T03:49:13.422Z,981.01
2017-12-10T03:51:06.783Z,980.97
2017-12-10T03:52:06.735Z,980.97
2017-12-10T03:54:00.145Z,980.89
2017-12-10T03:55:00.099Z,980.91
2017-12-10T03:56:54.425Z,980.90
2017-12-10T03:57:54.381Z,980.82
2017-12-10T03:59:51.035Z,980.98
2017-12-10T04:00:50.993Z,980.84
2017-12-10T04:02:47.020Z,980.78
2017-12-10T04:03:46.814Z,980.73
2017-12-10T04:05:40.174Z,980.61
2017-12-10T04:06:40.127Z,980.67
2017-12-10T04:08:36.862Z,980.59
2017-12-10T04:09:36.809Z,980.52
2017-12-10T04:11:30.178Z,980.48
2017-12-10T04:12:30.130Z,980.58
2017-12-10T04:14:23.490Z,980.61
2017-12-10T04:15:23.441Z,980.69
2017-12-10T04:17:19.311Z,980.54
2017-12-10T04:18:19.260Z,980.50
2017-12-10T04:20:12.629Z,980.59
2017-12-10T04:21:12.580Z,980.45
2017-12-10T04:23:05.927Z,980.42
2017-12-10T04:24:05.880Z,980.49
2017-12-10T04:25:59.253Z,980.51
2017-12-10T04:26:59.198Z,980.46
2017-12-10T04:28:52.554Z,980.56
2017-12-10T04:29:52.504Z,980.50
2017-12-10T04:31:45.862Z,980.56
2017-12-10T04:32:45.812Z,980.55
2017-12-10T04:34:39.206Z,980.40
2017-12-10T04:35:39.126Z,980.36
2017-12-10T04:37:32.507Z,980.35
2017-12-10T04:38:32.464Z,980.28
2017-12-10T04:40:25.819Z,980.37
2017-12-10T04:41:25.772Z,980.28
2017-12-10T04:43:19.119Z,980.33
2017-12-10T04:44:19.074Z,980.24
2017-12-10T04:46:12.438Z,980.26
2017-12-10T04:47:12.392Z,980.14
2017-12-10T04:49:05.742Z,980.20
2017-12-10T04:50:05.698Z,980.22
2017-12-10T04:51:59.075Z,980.17
2017-12-10T04:52:59.018Z,980.03
2017-12-10T04:54:54.879Z,980.04
2017-12-10T04:55:54.838Z,980.07
2017-12-10T04:57:48.235Z,980.09
2017-12-10T04:58:48.148Z,979.97
2017-12-10T05:00:41.507Z,979.88
2017-12-10T05:01:41.467Z,979.85
2017-12-10T05:03:34.821Z,979.81
2017-12-10T05:04:34.774Z,979.83
2017-12-10T05:06:28.147Z,979.82
2017-12-10T05:07:28.090Z,979.82
2017-12-10T05:09:23.958Z,979.79
2017-12-10T05:10:23.911Z,979.83
2017-12-10T05:12:17.318Z,979.66
2017-12-10T05:13:17.261Z,979.64
2017-12-10T05:15:13.128Z,979.59
2017-12-10T05:16:13.057Z,979.56
2017-12-10T05:18:08.922Z,979.54
2017-12-10T05:19:08.881Z,979.55
2017-12-10T05:21:02.229Z,979.51
2017-12-10T05:22:02.188Z,979.37
2017-12-10T05:23:58.053Z,979.37
2017-12-10T05:24:58.008Z,979.51
2017-12-10T05:26:51.374Z,979.34
2017-12-10T05:27:51.356Z,979.32
2017-12-10T05:29:47.237Z,979.37
2017-12-10T05:30:47.152Z,979.27
2017-12-10T05:32:40.498Z,979.33
2017-12-10T05:33:40.459Z,979.25
2017-12-10T05:35:33.810Z,979.14
2017-12-10T05:36:33.770Z,979.15
2017-12-10T05:38:29.622Z,979.07
2017-12-10T05:39:29.576Z,979.13
2017-12-10T05:41:22.933Z,979.13
2017-12-10T05:42:22.891Z,979.03
2017-12-10T05:44:16.229Z,978.92
2017-12-10T05:45:16.196Z,978.96
2017-12-10T05:47:12.074Z,978.86
2017-12-10T05:48:12.021Z,978.89
2017-12-10T05:50:05.400Z,978.89
2017-12-10T05:51:05.347Z,978.70
2017-12-10T05:53:01.230Z,978.60
2017-12-10T05:54:01.191Z,978.62
2017-12-10T05:55:54.570Z,978.58
2017-12-10T05:56:54.517Z,978.48
2017-12-10T05:58:48.721Z,978.44
2017-12-10T05:59:48.653Z,978.49
2017-12-10T06:01:42.012Z,978.43
2017-12-10T06:02:41.957Z,978.37
2017-12-10T06:04:35.378Z,978.37
2017-12-10T06:05:35.297Z,978.40
2017-12-10T06:07:28.652Z,978.32
2017-12-10T06:08:28.609Z,978.40
2017-12-10T06:10:24.466Z,978.27
2017-12-10T06:11:24.472Z,978.26
2017-12-10T06:13:17.783Z,978.24
2017-12-10T06:14:17.729Z,978.56
2017-12-10T06:16:13.591Z,978.18
2017-12-10T06:17:13.554Z,978.14
2017-12-10T06:19:09.407Z,978.17
2017-12-10T06:20:09.414Z,978.03
2017-12-10T06:22:02.739Z,977.94
2017-12-10T06:23:02.701Z,977.97
2017-12-10T06:24:56.843Z,977.94
2017-12-10T06:25:56.798Z,977.74
2017-12-10T06:27:52.658Z,977.95
2017-12-10T06:28:52.616Z,977.67
2017-12-10T06:30:46.875Z,977.56
2017-12-10T06:31:46.827Z,977.61
2017-12-10T06:33:42.688Z,977.57
2017-12-10T06:34:42.645Z,977.61
2017-12-10T06:36:38.488Z,977.44
2017-12-10T06:37:38.450Z,977.45
2017-12-10T06:39:34.319Z,977.39
2017-12-10T06:40:34.268Z,977.74
2017-12-10T06:42:30.148Z,977.33
2017-12-10T06:43:30.110Z,977.75
2017-12-10T06:45:23.527Z,977.37
2017-12-10T06:46:23.492Z,977.27
2017-12-10T06:48:16.771Z,977.24
2017-12-10T06:49:16.728Z,977.22
2017-12-10T06:51:10.112Z,977.40
2017-12-10T06:52:10.046Z,977.43
2017-12-10T06:54:03.407Z,977.40
2017-12-10T06:55:03.366Z,977.17
2017-12-10T06:56:59.409Z,977.16
2017-12-10T06:57:59.368Z,977.23
2017-12-10T06:59:55.354Z,977.12
2017-12-10T07:00:55.201Z,977.33
2017-12-10T07:02:48.577Z,976.86
2017-12-10T07:03:48.522Z,976.73
2017-12-10T07:05:41.900Z,976.99
2017-12-10T07:06:41.849Z,977.04
2017-12-10T07:08:35.200Z,976.67
2017-12-10T07:09:35.155Z,976.68
2017-12-10T07:11:28.518Z,976.73
2017-12-10T07:12:28.459Z,976.70
2017-12-10T07:14:21.834Z,976.62
2017-12-10T07:15:21.787Z,976.65
2017-12-10T07:17:15.138Z,976.69
2017-12-10T07:18:15.099Z,976.59
2017-12-10T07:20:11.138Z,976.56
2017-12-10T07:21:10.921Z,976.88
2017-12-10T07:23:06.780Z,976.47
2017-12-10T07:24:06.754Z,976.33
2017-12-10T07:26:00.102Z,976.42
2017-12-10T07:27:00.058Z,976.47
2017-12-10T07:28:55.908Z,976.26
2017-12-10T07:29:55.862Z,976.35
2017-12-10T07:31:51.731Z,976.27
2017-12-10T07:32:51.670Z,976.23
2017-12-10T07:34:45.023Z,976.15
2017-12-10T07:35:44.978Z,976.15
2017-12-10T07:37:38.377Z,976.15
2017-12-10T07:38:38.308Z,976.09
2017-12-10T07:40:31.667Z,976.01
2017-12-10T07:41:31.612Z,975.89
2017-12-10T07:43:25.019Z,976.00
2017-12-10T07:44:24.965Z,976.13
2017-12-10T07:46:18.359Z,976.04
2017-12-10T07:47:18.299Z,975.96
2017-12-10T07:49:14.163Z,975.91
2017-12-10T07:50:14.141Z,976.14
2017-12-10T07:52:09.988Z,975.80
2017-12-10T07:53:09.943Z,975.71
2017-12-10T07:55:05.807Z,975.82
2017-12-10T07:56:05.753Z,975.76
2017-12-10T07:58:01.675Z,975.73
2017-12-10T07:59:01.572Z,975.68
2017-12-10T08:00:54.929Z,975.70
2017-12-10T08:01:54.879Z,975.54
2017-12-10T08:03:48.262Z,975.56
2017-12-10T08:04:48.213Z,975.52
2017-12-10T08:06:41.580Z,975.52
2017-12-10T08:07:41.523Z,975.56
2017-12-10T08:09:34.880Z,975.66
2017-12-10T08:10:34.845Z,975.72
2017-12-10T08:12:28.190Z,975.69
2017-12-10T08:13:28.141Z,975.56
2017-12-10T08:15:21.550Z,975.53
2017-12-10T08:16:21.495Z,975.54
2017-12-10T08:18:14.860Z,975.60
2017-12-10T08:19:14.814Z,975.49
2017-12-10T08:21:10.706Z,975.32
2017-12-10T08:22:10.676Z,975.33
2017-12-10T08:24:03.993Z,975.36
2017-12-10T08:25:03.956Z,975.38
2017-12-10T08:26:57.496Z,975.19
2017-12-10T08:27:57.290Z,975.09
2017-12-10T08:29:50.638Z,975.04
2017-12-10T08:30:50.584Z,975.13
2017-12-10T08:32:46.449Z,975.24
2017-12-10T08:33:46.410Z,975.21
2017-12-10T08:35:39.765Z,975.13
2017-12-10T08:36:39.718Z,975.03
2017-12-10T08:38:33.074Z,974.92
2017-12-10T08:39:33.036Z,974.93
2017-12-10T08:41:26.401Z,974.95
2017-12-10T08:42:26.354Z,974.98
2017-12-10T08:44:19.723Z,974.89
2017-12-10T08:45:19.651Z,974.87
2017-12-10T08:47:13.083Z,974.78
2017-12-10T08:48:13.064Z,974.83
2017-12-10T08:50:06.395Z,974.63
2017-12-10T08:51:06.352Z,974.45
2017-12-10T08:52:59.909Z,974.55
2017-12-10T08:53:59.856Z,974.70
2017-12-10T08:55:53.225Z,974.58
2017-12-10T08:56:53.169Z,974.67
2017-12-10T08:58:46.519Z,974.49
2017-12-10T08:59:46.481Z,974.27
2017-12-10T09:01:39.849Z,974.44
2017-12-10T09:02:39.808Z,974.36
2017-12-10T09:04:33.162Z,974.22
2017-12-10T09:05:33.124Z,974.19
2017-12-10T09:07:26.484Z,974.19
2017-12-10T09:08:26.434Z,974.52
2017-12-10T09:10:19.863Z,974.29
2017-12-10T09:11:19.793Z,973.96
2017-12-10T09:13:13.136Z,973.89
2017-12-10T09:14:13.076Z,974.15
2017-12-10T09:16:06.428Z,973.98
2017-12-10T09:17:06.382Z,974.29
2017-12-10T09:18:59.749Z,973.87
2017-12-10T09:19:59.711Z,973.92
2017-12-10T09:21:53.049Z,973.97
2017-12-10T09:22:53.020Z,973.67
2017-12-10T09:24:48.870Z,973.59
2017-12-10T09:25:48.820Z,973.74
2017-12-10T09:27:44.686Z,973.56
2017-12-10T09:28:44.640Z,973.72
2017-12-10T09:30:38.034Z,973.45
2017-12-10T09:31:37.991Z,973.38
2017-12-10T09:33:33.884Z,973.86
2017-12-10T09:34:33.861Z,973.37
2017-12-10T09:36:28.164Z,973.16
2017-12-10T09:37:28.113Z,973.52
2017-12-10T09:39:23.970Z,973.23
2017-12-10T09:40:23.929Z,973.22
2017-12-10T09:42:19.853Z,973.05
2017-12-10T09:43:19.748Z,973.40
2017-12-10T09:45:13.107Z,973.42
2017-12-10T09:46:13.054Z,973.24
2017-12-10T09:48:06.414Z,973.17
2017-12-10T09:49:06.376Z,973.17
2017-12-10T09:50:59.720Z,973.08
2017-12-10T09:51:59.679Z,973.35
2017-12-10T09:53:53.041Z,973.25
2017-12-10T09:54:52.998Z,972.99
2017-12-10T09:56:46.360Z,972.92
2017-12-10T09:57:46.311Z,972.80
2017-12-10T09:59:39.669Z,972.92
2017-12-10T10:00:39.622Z,972.82
2017-12-10T10:02:35.487Z,972.56
2017-12-10T10:03:35.442Z,972.55
2017-12-10T10:05:28.898Z,972.47
2017-12-10T10:06:28.808Z,972.60
2017-12-10T10:08:22.175Z,972.62
2017-12-10T10:09:22.119Z,972.48
2017-12-10T10:11:15.479Z,972.36
2017-12-10T10:12:15.434Z,972.55
2017-12-10T10:14:08.795Z,972.40
2017-12-10T10:15:08.756Z,972.33
2017-12-10T10:17:04.597Z,972.12
2017-12-10T10:18:04.561Z,972.02
2017-12-10T10:19:57.930Z,971.98
2017-12-10T10:20:57.878Z,972.11
2017-12-10T10:22:53.756Z,971.68
2017-12-10T10:23:53.698Z,971.60
2017-12-10T10:25:47.058Z,971.45
2017-12-10T10:26:47.006Z,971.43
2017-12-10T10:28:41.295Z,971.34
2017-12-10T10:29:41.251Z,971.32
2017-12-10T10:31:37.124Z,971.20
2017-12-10T10:32:37.073Z,971.25
2017-12-10T10:34:32.995Z,971.02
2017-12-10T10:35:32.912Z,970.99
2017-12-10T10:37:28.775Z,971.00
2017-12-10T10:38:28.735Z,970.97
2017-12-10T10:40:22.277Z,970.79
2017-12-10T10:41:22.234Z,970.85
2017-12-10T10:43:18.109Z,970.74
2017-12-10T10:44:18.064Z,970.83
2017-12-10T10:46:11.425Z,970.59
2017-12-10T10:47:11.374Z,970.56
2017-12-10T10:49:07.260Z,970.44
2017-12-10T10:50:07.212Z,970.37
2017-12-10T10:52:03.274Z,970.29
2017-12-10T10:53:03.231Z,970.26
2017-12-10T10:54:59.114Z,970.23
2017-12-10T10:55:59.056Z,970.19
2017-12-10T10:57:54.935Z,970.12
2017-12-10T10:58:54.888Z,970.03
2017-12-10T11:00:48.433Z,969.83
2017-12-10T11:01:48.379Z,969.93
2017-12-10T11:03:41.742Z,969.85
2017-12-10T11:04:41.704Z,969.81
2017-12-10T11:06:35.073Z,969.55
2017-12-10T11:07:35.016Z,969.52
2017-12-10T11:09:28.419Z,969.50
2017-12-10T11:10:28.370Z,969.44
2017-12-10T11:12:21.731Z,969.41
2017-12-10T11:13:21.690Z,969.35
2017-12-10T11:15:15.089Z,969.30
2017-12-10T11:16:15.002Z,969.22
2017-12-10T11:18:08.363Z,969.02
2017-12-10T11:19:08.320Z,969.03
2017-12-10T11:21:04.181Z,968.94
2017-12-10T11:22:04.132Z,968.96
2017-12-10T11:24:00.078Z,968.81
2017-12-10T11:25:00.003Z,968.82
2017-12-10T11:26:55.860Z,968.63
2017-12-10T11:27:55.821Z,968.60
2017-12-10T11:29:51.683Z,968.59
2017-12-10T11:30:51.635Z,968.57
2017-12-10T11:32:44.987Z,968.48
2017-12-10T11:33:44.945Z,968.49
2017-12-10T11:35:41.009Z,968.30
2017-12-10T11:36:40.968Z,968.32
2017-12-10T11:38:34.327Z,968.20
2017-12-10T11:39:34.272Z,968.11
2017-12-10T11:41:27.640Z,968.08
2017-12-10T11:42:27.596Z,968.36
2017-12-10T11:44:20.955Z,968.14
2017-12-10T11:45:20.906Z,967.88
2017-12-10T11:47:15.164Z,967.85
2017-12-10T11:48:15.110Z,967.80
2017-12-10T11:50:10.993Z,967.68
2017-12-10T11:51:10.939Z,967.56
2017-12-10T11:53:06.788Z,967.49
2017-12-10T11:54:06.742Z,967.48
2017-12-10T11:56:02.610Z,967.37
2017-12-10T11:57:02.559Z,967.38
2017-12-10T11:58:58.572Z,967.32
2017-12-10T11:59:58.373Z,967.29
2017-12-10T12:01:51.735Z,967.26
2017-12-10T12:02:51.695Z,967.07
2017-12-10T12:04:45.049Z,966.93
2017-12-10T12:05:45.002Z,966.91
2017-12-10T12:07:40.857Z,966.86
2017-12-10T12:08:40.814Z,966.84
2017-12-10T12:10:37.515Z,966.78
2017-12-10T12:11:37.475Z,966.77
2017-12-10T12:13:30.813Z,966.64
2017-12-10T12:14:30.766Z,966.71
2017-12-10T12:16:26.631Z,966.51
2017-12-10T12:17:26.585Z,966.42
2017-12-10T12:19:19.946Z,966.37
2017-12-10T12:20:19.893Z,966.40
2017-12-10T12:22:15.760Z,966.29
2017-12-10T12:23:15.710Z,966.29
2017-12-10T12:25:11.585Z,966.10
2017-12-10T12:26:11.521Z,966.04
2017-12-10T12:28:04.890Z,965.90
2017-12-10T12:29:04.851Z,965.86
2017-12-10T12:31:00.721Z,965.92
2017-12-10T12:32:00.666Z,965.70
2017-12-10T12:33:54.045Z,965.61
2017-12-10T12:34:53.992Z,965.61
2017-12-10T12:36:49.877Z,965.57
2017-12-10T12:37:49.826Z,965.58
2017-12-10T12:39:43.965Z,965.46
2017-12-10T12:40:43.934Z,965.35
2017-12-10T12:42:37.297Z,965.31
2017-12-10T12:43:37.258Z,965.48
2017-12-10T12:45:33.082Z,965.21
2017-12-10T12:46:33.037Z,965.20
2017-12-10T12:48:26.396Z,965.22
2017-12-10T12:49:26.348Z,965.12
2017-12-10T12:51:22.282Z,965.00
2017-12-10T12:52:22.183Z,965.03
2017-12-10T12:54:15.532Z,965.10
2017-12-10T12:55:15.485Z,964.84
2017-12-10T12:57:08.830Z,964.74
2017-12-10T12:58:08.795Z,964.69
2017-12-10T13:00:04.660Z,964.72
2017-12-10T13:01:04.617Z,964.70
2017-12-10T13:03:00.453Z,964.47
2017-12-10T13:04:00.422Z,964.65
2017-12-10T13:05:53.772Z,964.39
2017-12-10T13:06:53.715Z,964.78
2017-12-10T13:08:49.580Z,964.24
2017-12-10T13:09:49.529Z,964.32
2017-12-10T13:11:42.900Z,964.12
2017-12-10T13:12:42.848Z,963.98
2017-12-10T13:14:38.711Z,964.02
2017-12-10T13:15:38.662Z,963.77
2017-12-10T13:17:32.016Z,963.74
2017-12-10T13:18:31.976Z,963.80
2017-12-10T13:20:27.841Z,963.63
2017-12-10T13:21:27.812Z,963.56
2017-12-10T13:23:21.198Z,963.35
2017-12-10T13:24:21.129Z,963.40
2017-12-10T13:26:14.483Z,963.39
2017-12-10T13:27:14.436Z,963.51
2017-12-10T13:29:10.295Z,963.47
2017-12-10T13:30:10.259Z,963.50
2017-12-10T13:32:06.086Z,963.76
2017-12-10T13:33:06.059Z,963.71
2017-12-10T13:34:59.441Z,963.45
2017-12-10T13:35:59.368Z,963.39
2017-12-10T13:37:52.740Z,963.50
2017-12-10T13:38:52.667Z,963.30
2017-12-10T13:40:46.020Z,963.09
2017-12-10T13:41:45.973Z,963.09
2017-12-10T13:43:39.314Z,963.11
2017-12-10T13:44:39.271Z,963.13
2017-12-10T13:46:32.626Z,963.00
2017-12-10T13:47:32.575Z,963.00
2017-12-10T13:49:28.429Z,963.14
2017-12-10T13:50:28.402Z,962.88
2017-12-10T13:52:21.735Z,962.98
2017-12-10T13:53:21.687Z,962.85
2017-12-10T13:55:15.041Z,962.86
2017-12-10T13:56:14.992Z,962.82
2017-12-10T13:58:08.363Z,962.81
2017-12-10T13:59:08.311Z,962.67
2017-12-10T14:01:04.169Z,962.40
2017-12-10T14:02:04.121Z,962.49
2017-12-10T14:03:57.481Z,962.34
2017-12-10T14:04:57.437Z,962.27
2017-12-10T14:06:53.305Z,962.08
2017-12-10T14:07:53.264Z,961.99
2017-12-10T14:09:47.503Z,961.94
2017-12-10T14:10:47.443Z,961.85
2017-12-10T14:12:40.763Z,961.81
2017-12-10T14:13:40.716Z,961.82
2017-12-10T14:15:36.577Z,961.92
2017-12-10T14:16:36.528Z,961.84
2017-12-10T14:18:29.870Z,961.75
2017-12-10T14:19:29.836Z,961.76
2017-12-10T14:21:25.811Z,961.87
2017-12-10T14:22:25.616Z,961.90
2017-12-10T14:24:19.800Z,961.97
2017-12-10T14:25:19.749Z,962.11
2017-12-10T14:27:15.600Z,961.84
2017-12-10T14:28:15.555Z,961.79
2017-12-10T14:30:11.435Z,961.54
2017-12-10T14:31:11.390Z,961.53
2017-12-10T14:33:07.231Z,961.43
2017-12-10T14:34:07.178Z,961.50
2017-12-10T14:36:00.555Z,961.64
2017-12-10T14:37:00.528Z,961.61
2017-12-10T14:38:53.833Z,961.66
2017-12-10T14:39:53.772Z,961.52
2017-12-10T14:41:49.621Z,961.34
2017-12-10T14:42:49.568Z,961.08
2017-12-10T14:44:42.945Z,961.00
2017-12-10T14:45:42.880Z,961.06
2017-12-10T14:47:38.740Z,960.83
2017-12-10T14:48:38.709Z,960.85
2017-12-10T14:50:35.388Z,960.92
2017-12-10T14:51:35.333Z,960.72
2017-12-10T14:53:28.677Z,960.82
2017-12-10T14:54:28.620Z,960.70
2017-12-10T14:56:22.766Z,960.62
2017-12-10T14:57:22.732Z,960.54
2017-12-10T14:59:16.063Z,960.60
2017-12-10T15:00:16.017Z,960.58
2017-12-10T15:02:09.362Z,960.53
2017-12-10T15:03:09.312Z,960.51
2017-12-10T15:05:02.666Z,960.57
2017-12-10T15:06:02.621Z,960.37
2017-12-10T15:07:55.982Z,960.45
2017-12-10T15:08:55.929Z,960.49
2017-12-10T15:10:49.280Z,960.34
2017-12-10T15:11:49.223Z,960.38
2017-12-10T15:13:42.585Z,960.35
2017-12-10T15:14:42.522Z,960.27
2017-12-10T15:16:38.367Z,960.35
2017-12-10T15:17:38.327Z,960.54
2017-12-10T15:19:31.686Z,960.34
2017-12-10T15:20:31.633Z,960.34
2017-12-10T15:22:24.979Z,960.42
2017-12-10T15:23:24.928Z,960.35
2017-12-10T15:25:18.272Z,960.30
2017-12-10T15:26:18.231Z,960.30
2017-12-10T15:28:11.621Z,960.18
2017-12-10T15:29:11.541Z,960.13
2017-12-10T15:31:04.896Z,960.07
2017-12-10T15:32:04.849Z,959.99
2017-12-10T15:33:58.203Z,959.96
2017-12-10T15:34:58.142Z,959.98
2017-12-10T15:36:51.531Z,959.90
2017-12-10T15:37:51.479Z,959.90
2017-12-10T15:39:47.676Z,959.91
2017-12-10T15:40:47.518Z,959.77
2017-12-10T15:42:40.893Z,959.91
2017-12-10T15:43:40.848Z,959.85
2017-12-10T15:45:34.223Z,959.64
2017-12-10T15:46:34.171Z,959.71
2017-12-10T15:48:28.403Z,959.72
2017-12-10T15:49:28.346Z,959.77
2017-12-10T15:51:21.763Z,959.59
2017-12-10T15:52:21.848Z,959.58
2017-12-10T15:54:15.027Z,959.57
2017-12-10T15:55:14.976Z,959.57
2017-12-10T15:57:08.372Z,959.63
2017-12-10T15:58:08.358Z,959.50
2017-12-10T16:00:14.171Z,959.47
2017-12-10T16:01:14.120Z,959.57
2017-12-10T16:03:08.319Z,959.71
2017-12-10T16:04:08.271Z,959.48
2017-12-10T16:06:01.637Z,959.50
2017-12-10T16:07:01.590Z,959.60
2017-12-10T16:08:54.937Z,959.57
2017-12-10T16:09:54.896Z,959.57
2017-12-10T16:11:48.247Z,959.62
2017-12-10T16:12:48.198Z,959.57
2017-12-10T16:14:41.563Z,959.48
2017-12-10T16:15:41.516Z,959.46
2017-12-10T16:17:34.873Z,959.54
2017-12-10T16:18:34.828Z,959.38
2017-12-10T16:20:28.171Z,959.36
2017-12-10T16:21:28.173Z,959.31
2017-12-10T16:23:24.018Z,959.35
2017-12-10T16:24:23.944Z,959.35
2017-12-10T16:26:17.305Z,959.44
2017-12-10T16:27:17.268Z,959.47
2017-12-10T16:29:10.657Z,959.34
2017-12-10T16:30:10.597Z,959.28
2017-12-10T16:32:03.947Z,959.14
2017-12-10T16:33:03.900Z,959.29
2017-12-10T16:34:57.263Z,959.17
2017-12-10T16:35:57.214Z,959.02
2017-12-10T16:37:50.770Z,958.95
2017-12-10T16:38:50.723Z,959.00
2017-12-10T16:40:46.569Z,958.96
2017-12-10T16:41:46.520Z,959.10
2017-12-10T16:43:42.390Z,958.82
2017-12-10T16:44:42.342Z,958.98
2017-12-10T16:46:35.694Z,958.98
2017-12-10T16:47:35.654Z,958.98
2017-12-10T16:49:31.512Z,958.98
2017-12-10T16:50:31.461Z,958.96
2017-12-10T16:52:27.318Z,958.99
2017-12-10T16:53:27.290Z,959.01
2017-12-10T16:55:20.666Z,959.21
2017-12-10T16:56:20.612Z,959.19
2017-12-10T16:58:13.964Z,959.40
2017-12-10T16:59:13.922Z,959.31
2017-12-10T17:01:07.303Z,959.54
2017-12-10T17:02:07.244Z,959.31
2017-12-10T17:04:00.598Z,959.32
2017-12-10T17:05:00.550Z,959.26
2017-12-10T17:06:56.405Z,959.31
2017-12-10T17:07:56.363Z,959.15
2017-12-10T17:09:49.737Z,959.38
2017-12-10T17:10:49.694Z,959.21
2017-12-10T17:12:45.555Z,959.19
2017-12-10T17:13:45.510Z,959.08
2017-12-10T17:15:41.379Z,959.17
2017-12-10T17:16:41.334Z,959.15
2017-12-10T17:18:34.689Z,959.31
2017-12-10T17:19:34.649Z,959.42
2017-12-10T17:21:28.010Z,959.49
2017-12-10T17:22:27.973Z,959.44
2017-12-10T17:24:32.033Z,959.18
2017-12-10T17:25:31.982Z,959.10
2017-12-10T17:27:25.388Z,959.17
2017-12-10T17:28:25.299Z,959.22
2017-12-10T17:30:18.656Z,959.46
2017-12-10T17:31:18.620Z,959.54
2017-12-10T17:33:14.672Z,959.40
2017-12-10T17:34:14.614Z,958.95
2017-12-10T17:36:07.974Z,959.20
2017-12-10T17:37:07.929Z,959.09
2017-12-10T17:39:02.134Z,959.32
2017-12-10T17:40:02.083Z,959.00
2017-12-10T17:41:55.440Z,959.04
2017-12-10T17:42:55.395Z,959.01
2017-12-10T17:44:48.760Z,959.21
2017-12-10T17:45:48.717Z,959.35
2017-12-10T17:47:42.086Z,959.21
2017-12-10T17:48:42.034Z,959.18
2017-12-10T17:50:35.382Z,958.99
2017-12-10T17:51:35.339Z,959.02
2017-12-10T17:53:28.686Z,959.12
2017-12-10T17:54:28.645Z,959.16
2017-12-10T17:56:22.004Z,959.17
2017-12-10T17:57:21.957Z,959.27
2017-12-10T17:59:15.324Z,959.05
2017-12-10T18:00:15.276Z,959.05
2017-12-10T18:02:08.653Z,959.02
2017-12-10T18:03:08.615Z,959.10
2017-12-10T18:05:01.987Z,959.03
2017-12-10T18:06:01.959Z,959.16